Time;durP1;ratioP1;P1;durP2;ratioP2;P2;SDS_P1;SDS_P2;PMS_P1;PMS_P2;Temp;Humidity;BMP_temperature;BMP_pressure;BME280_temperature;BME280_humidity;BME280_pressure;Samples;Min_cycle;Max_cycle;Signal;HPM_P1;HPM_P2
2022/01/08 00:01:57;;;;;;;21.70;12.30;;;6.60;99.90;;;;;;10219145;29;20291;-91
2022/01/08 00:06:59;;;;;;;20.47;11.93;;;7.20;99.90;;;;;;10219015;29;20211;-91
2022/01/08 00:12:02;;;;;;;24.30;12.87;;;7.10;99.90;;;;;;10217603;29;20207;-91
2022/01/08 00:17:05;;;;;;;21.83;14.40;;;6.90;99.90;;;;;;10218905;29;20207;-91
2022/01/08 00:22:08;;;;;;;18.77;12.27;;;6.40;99.90;;;;;;10218128;29;20294;-91
2022/01/08 00:27:10;;;;;;;18.73;13.03;;;6.50;99.90;;;;;;10218061;29;20203;-91
2022/01/08 00:32:14;;;;;;;21.67;11.47;;;6.50;99.90;;;;;;10217305;29;20215;-91
2022/01/08 00:37:17;;;;;;;20.97;11.63;;;7.20;99.90;;;;;;10217703;29;20274;-91
2022/01/08 00:42:19;;;;;;;18.40;11.33;;;7.20;99.90;;;;;;10215972;29;20282;-91
2022/01/08 00:47:22;;;;;;;22.47;14.03;;;7.60;99.90;;;;;;10217297;29;20262;-92
2022/01/08 00:52:24;;;;;;;20.87;14.33;;;6.90;99.90;;;;;;10215807;29;20599;-91
2022/01/08 00:57:27;;;;;;;18.03;12.90;;;6.60;99.90;;;;;;10217066;29;20580;-90
2022/01/08 01:02:29;;;;;;;23.77;13.90;;;7.20;99.90;;;;;;10216811;29;20274;-91
2022/01/08 01:07:32;;;;;;;24.90;15.57;;;6.60;99.90;;;;;;10215456;29;20244;-91
2022/01/08 01:12:35;;;;;;;18.83;13.20;;;6.50;99.90;;;;;;10199561;29;20262;-91
2022/01/08 01:17:44;;;;;;;21.27;11.90;;;7.10;99.90;;;;;;10216009;29;20255;-91
2022/01/08 01:23:00;;;;;;;17.90;12.73;;;6.40;99.90;;;;;;10215946;29;20239;-91
2022/01/08 01:48:55;;;;;;;17.57;12.13;;;7.20;99.90;;;;;;10214921;29;20736;-91
2022/01/08 01:53:58;;;;;;;16.93;10.80;;;6.70;99.90;;;;;;10213197;29;20266;-91
2022/01/08 01:59:01;;;;;;;17.93;11.00;;;7.00;99.90;;;;;;10214527;29;20211;-91
2022/01/08 02:04:03;;;;;;;16.30;10.90;;;6.80;99.90;;;;;;10197307;29;20600;-91
2022/01/08 02:09:06;;;;;;;16.10;11.77;;;7.10;99.90;;;;;;10214164;29;20243;-90
2022/01/08 02:14:08;;;;;;;15.53;10.83;;;7.40;99.90;;;;;;10214407;29;20207;-90
2022/01/08 02:19:11;;;;;;;15.30;11.00;;;6.40;99.90;;;;;;10212843;29;20238;-91
2022/01/08 02:24:13;;;;;;;18.47;12.93;;;6.50;99.90;;;;;;10196782;29;20227;-91
2022/01/08 02:29:18;;;;;;;15.03;10.90;;;6.90;99.90;;;;;;10227228;29;20238;-91
2022/01/08 02:34:21;;;;;;;16.73;12.33;;;6.70;99.90;;;;;;10236006;28;20303;-91
2022/01/08 02:39:25;;;;;;;15.37;11.90;;;6.10;99.90;;;;;;10251927;29;20214;-90
2022/01/08 02:44:27;;;;;;;17.40;12.77;;;6.60;99.90;;;;;;10235112;29;20578;-91
2022/01/08 02:49:33;;;;;;;13.53;11.40;;;5.60;99.90;;;;;;10252527;28;20246;-91
2022/01/08 02:54:35;;;;;;;18.97;13.00;;;5.70;99.90;;;;;;10252147;28;20206;-90
2022/01/08 02:59:38;;;;;;;16.37;10.83;;;6.00;99.90;;;;;;10235468;28;20335;-90
2022/01/08 03:04:41;;;;;;;18.63;12.50;;;5.40;99.90;;;;;;10234817;29;20206;-91
2022/01/08 03:09:46;;;;;;;20.27;14.73;;;5.40;99.90;;;;;;10252493;29;20202;-91
2022/01/08 03:14:50;;;;;;;19.23;13.30;;;5.80;99.90;;;;;;10252603;29;20202;-90
2022/01/08 03:19:54;;;;;;;19.90;13.93;;;5.40;99.90;;;;;;10252161;29;20250;-91
2022/01/08 03:24:57;;;;;;;15.33;11.33;;;5.90;99.90;;;;;;10252059;28;20222;-91
2022/01/08 03:30:00;;;;;;;11.43;8.47;;;6.10;99.90;;;;;;10252143;29;20211;-91
2022/01/08 03:35:03;;;;;;;15.60;10.10;;;7.70;99.90;;;;;;10234433;29;20712;-91
2022/01/08 03:40:06;;;;;;;17.90;11.93;;;7.70;99.90;;;;;;10251865;28;20227;-91
2022/01/08 03:45:09;;;;;;;18.90;13.27;;;7.20;99.90;;;;;;10234818;28;20206;-91
2022/01/08 03:50:12;;;;;;;17.30;12.07;;;7.20;99.90;;;;;;10251476;29;20254;-90
2022/01/08 03:55:14;;;;;;;9.40;6.60;;;7.20;99.90;;;;;;10251753;28;20207;-92
2022/01/08 04:00:17;;;;;;;17.67;12.67;;;7.90;99.90;;;;;;10218436;29;20285;-91
2022/01/08 04:05:20;;;;;;;23.27;14.50;;;8.80;99.90;;;;;;10256365;28;20742;-90
2022/01/08 04:10:22;;;;;;;20.90;12.33;;;6.90;99.90;;;;;;10241651;28;20238;-90
2022/01/08 04:20:29;;;;;;;13.03;8.70;;;6.40;99.90;;;;;;10257977;28;20226;-91
2022/01/08 04:25:32;;;;;;;14.60;9.90;;;6.60;99.90;;;;;;10240769;28;20599;-91
2022/01/08 04:30:34;;;;;;;22.30;13.00;;;6.70;99.90;;;;;;10240687;28;20215;-91
2022/01/08 04:35:37;;;;;;;12.17;9.07;;;7.60;99.90;;;;;;10239983;28;20690;-89
2022/01/08 04:40:40;;;;;;;19.47;13.00;;;7.50;99.90;;;;;;10257614;28;20250;-91
2022/01/08 04:45:43;;;;;;;16.50;11.70;;;7.40;99.90;;;;;;10257131;28;20206;-91
2022/01/08 04:50:46;;;;;;;15.33;10.27;;;6.50;99.90;;;;;;10256946;28;20218;-91
2022/01/08 04:55:48;;;;;;;20.03;12.97;;;7.10;99.90;;;;;;10256835;28;20214;-91
2022/01/08 05:00:51;;;;;;;18.43;11.37;;;7.30;99.90;;;;;;10256568;28;20234;-90
2022/01/08 05:05:53;;;;;;;18.13;11.97;;;6.80;99.90;;;;;;10239338;29;20210;-90
2022/01/08 05:10:56;;;;;;;15.43;10.37;;;6.90;99.90;;;;;;10256384;28;20646;-90
2022/01/08 05:16:00;;;;;;;11.23;7.97;;;6.60;99.90;;;;;;10255617;28;20249;-91
2022/01/08 05:21:12;;;;;;;33.30;18.43;;;6.30;99.90;;;;;;10238726;29;20230;-91
2022/01/08 05:26:15;;;;;;;43.60;21.60;;;6.00;99.90;;;;;;10255352;28;20582;-91
2022/01/08 05:31:21;;;;;;;25.87;13.97;;;6.10;99.90;;;;;;10255480;29;20210;-91
2022/01/08 05:36:23;;;;;;;33.30;17.93;;;6.40;99.90;;;;;;10255009;29;20277;-91
2022/01/08 05:41:25;;;;;;;19.87;12.27;;;6.40;99.90;;;;;;10254902;29;20285;-90
2022/01/08 05:46:28;;;;;;;24.67;17.27;;;6.70;99.90;;;;;;10254619;28;20203;-91
2022/01/08 05:51:30;;;;;;;19.97;12.83;;;6.30;99.90;;;;;;10254538;28;20206;-91
2022/01/08 05:56:33;;;;;;;24.73;14.17;;;6.60;99.90;;;;;;10221158;29;20595;-91
2022/01/08 06:01:35;;;;;;;15.60;11.07;;;5.90;99.90;;;;;;10254108;29;20230;-90
2022/01/08 06:06:40;;;;;;;15.37;9.87;;;6.80;99.90;;;;;;10237090;28;20203;-90
2022/01/08 06:11:42;;;;;;;16.50;11.53;;;6.60;99.90;;;;;;10253965;28;20293;-91
2022/01/08 06:16:45;;;;;;;19.33;13.23;;;6.10;99.90;;;;;;10253826;28;20261;-91
2022/01/08 06:21:48;;;;;;;18.13;14.10;;;6.60;99.90;;;;;;10253267;29;20719;-90
2022/01/08 06:26:50;;;;;;;17.57;13.30;;;6.60;99.90;;;;;;10235031;28;20210;-90
2022/01/08 06:31:55;;;;;;;19.13;11.57;;;6.20;99.90;;;;;;10220200;28;20238;-91
2022/01/08 06:36:58;;;;;;;22.20;15.03;;;6.30;99.90;;;;;;10235653;29;20258;-91
2022/01/08 06:42:02;;;;;;;19.97;10.57;;;6.10;99.90;;;;;;10235270;28;20229;-90
2022/01/08 06:47:04;;;;;;;24.87;14.03;;;6.70;99.90;;;;;;10235503;29;20238;-91
2022/01/08 06:52:07;;;;;;;19.00;11.07;;;6.80;99.90;;;;;;10252646;29;20774;-91
2022/01/08 06:57:09;;;;;;;21.93;13.77;;;7.50;99.90;;;;;;10235722;28;20206;-91
2022/01/08 07:02:12;;;;;;;16.67;11.53;;;7.20;99.90;;;;;;10252438;29;20250;-91
2022/01/08 07:07:14;;;;;;;12.97;9.03;;;7.40;99.90;;;;;;10235549;29;20207;-91
2022/01/08 07:12:16;;;;;;;16.67;11.07;;;7.70;99.90;;;;;;10252439;28;20245;-91
2022/01/08 07:17:19;;;;;;;24.73;16.10;;;7.60;99.90;;;;;;10251840;28;20253;-91
2022/01/08 07:22:21;;;;;;;30.73;17.77;;;8.10;99.90;;;;;;10251747;28;20226;-91
2022/01/08 07:27:24;;;;;;;19.70;15.00;;;7.30;99.90;;;;;;10251961;28;20262;-91
2022/01/08 07:32:27;;;;;;;15.87;10.33;;;7.10;99.90;;;;;;10251871;28;20359;-91
2022/01/08 07:37:29;;;;;;;19.00;13.00;;;7.90;99.90;;;;;;10252718;28;20265;-91
2022/01/08 07:42:32;;;;;;;21.03;14.10;;;7.20;99.90;;;;;;10259459;28;20254;-91
2022/01/08 07:47:35;;;;;;;29.37;17.63;;;7.00;99.90;;;;;;10259161;29;20246;-91
2022/01/08 07:52:38;;;;;;;12.40;8.23;;;6.70;99.90;;;;;;10241992;29;20214;-91
2022/01/08 07:57:40;;;;;;;31.20;16.23;;;7.80;99.90;;;;;;10258982;28;20210;-91
2022/01/08 08:02:43;;;;;;;22.50;13.07;;;7.10;99.90;;;;;;10241738;28;20230;-91
2022/01/08 08:07:46;;;;;;;28.40;17.57;;;8.10;99.90;;;;;;10258344;29;20202;-91
2022/01/08 08:12:49;;;;;;;36.17;20.13;;;7.30;99.90;;;;;;10258325;29;20210;-90
2022/01/08 08:17:55;;;;;;;38.30;21.33;;;7.30;99.90;;;;;;10257972;28;20281;-90
2022/01/08 08:22:57;;;;;;;21.97;14.57;;;6.70;98.40;;;;;;10257742;28;20293;-91
2022/01/08 08:28:00;;;;;;;38.10;21.80;;;7.30;99.90;;;;;;10257753;29;20202;-91
2022/01/08 08:33:04;;;;;;;39.00;22.30;;;6.70;99.90;;;;;;10257505;29;20211;-90
2022/01/08 08:38:06;;;;;;;23.70;15.57;;;6.90;99.90;;;;;;10257263;28;20206;-90
2022/01/08 08:43:09;;;;;;;30.90;16.40;;;6.50;99.90;;;;;;10257096;28;20226;-91
2022/01/08 08:48:12;;;;;;;19.93;13.10;;;6.60;99.90;;;;;;10239783;28;20257;-91
2022/01/08 08:53:14;;;;;;;23.10;15.53;;;7.20;99.90;;;;;;10254906;29;20585;-90
2022/01/08 08:58:17;;;;;;;21.10;12.80;;;6.80;99.90;;;;;;10256865;29;20206;-91
2022/01/08 09:03:21;;;;;;;29.93;17.73;;;6.70;99.90;;;;;;10239216;29;20230;-91
2022/01/08 09:08:25;;;;;;;16.53;11.17;;;6.60;99.90;;;;;;10256156;29;20206;-90
2022/01/08 09:13:28;;;;;;;35.30;21.07;;;7.00;99.90;;;;;;10255996;28;20206;-92
2022/01/08 09:18:31;;;;;;;32.50;18.87;;;6.90;99.90;;;;;;10255669;28;20210;-90
2022/01/08 09:23:33;;;;;;;23.53;15.37;;;7.30;99.90;;;;;;10255338;28;20227;-91
2022/01/08 09:28:36;;;;;;;41.33;22.67;;;6.50;99.90;;;;;;10238448;28;20296;-91
2022/01/08 09:33:39;;;;;;;32.33;19.57;;;6.20;99.90;;;;;;10222369;29;20215;-91
2022/01/08 09:38:42;;;;;;;31.43;19.50;;;6.30;99.90;;;;;;10254934;28;20206;-91
2022/01/08 09:43:44;;;;;;;22.13;14.90;;;6.40;99.90;;;;;;10221427;29;20234;-90
2022/01/08 09:48:50;;;;;;;29.03;15.83;;;7.30;99.90;;;;;;10237823;28;20620;-90
2022/01/08 09:53:54;;;;;;;23.07;14.23;;;8.40;99.90;;;;;;10252652;29;20222;-91
2022/01/08 09:58:57;;;;;;;35.10;21.10;;;8.90;99.90;;;;;;10254283;28;20249;-91
2022/01/08 10:04:01;;;;;;;11.37;7.97;;;7.30;99.90;;;;;;10253897;28;20226;-89
2022/01/08 10:09:05;;;;;;;11.50;7.57;;;9.30;99.90;;;;;;10253845;28;20206;-90
2022/01/08 10:14:15;;;;;;;10.17;6.43;;;10.90;99.90;;;;;;10253762;28;20206;-90
2022/01/08 10:19:24;;;;;;;9.63;7.23;;;11.80;99.90;;;;;;10236067;28;20684;-90
2022/01/08 10:24:29;;;;;;;9.97;7.40;;;12.30;98.50;;;;;;10235983;29;20286;-91
2022/01/08 10:29:32;;;;;;;11.27;8.03;;;12.40;98.70;;;;;;10253161;28;20240;-90
2022/01/08 10:34:37;;;;;;;11.57;7.53;;;11.70;97.30;;;;;;10235546;29;20273;-90
2022/01/08 10:39:40;;;;;;;14.37;8.53;;;11.90;99.40;;;;;;10252604;29;20565;-90
2022/01/08 10:44:46;;;;;;;22.27;14.53;;;11.40;96.60;;;;;;10235001;29;20712;-90
2022/01/08 10:50:03;;;;;;;25.67;17.67;;;11.80;91.20;;;;;;10253165;28;20632;-90
2022/01/08 10:55:05;;;;;;;32.20;21.17;;;10.30;87.80;;;;;;10252654;29;20210;-90
2022/01/08 11:00:11;;;;;;;32.27;20.83;;;8.80;90.40;;;;;;10252373;28;20655;-91
2022/01/08 11:05:14;;;;;;;22.17;15.73;;;8.40;90.90;;;;;;10235157;29;20230;-90
2022/01/08 11:10:19;;;;;;;29.67;19.67;;;8.30;99.90;;;;;;10234575;29;20214;-90
2022/01/08 11:15:46;;;;;;;29.40;18.70;;;7.10;92.80;;;;;;10258110;28;20238;-90
2022/01/08 11:20:48;;;;;;;16.30;11.33;;;7.50;99.90;;;;;;10242197;29;20755;-90
2022/01/08 11:25:53;;;;;;;29.67;19.30;;;9.70;99.90;;;;;;10259607;28;20258;-90
2022/01/08 11:30:59;;;;;;;11.03;7.70;;;9.70;95.10;;;;;;10259707;28;20235;-90
2022/01/08 11:36:01;;;;;;;29.70;18.93;;;9.30;99.90;;;;;;10241750;28;20215;-90
2022/01/08 11:41:04;;;;;;;19.63;12.20;;;10.80;94.30;;;;;;10257703;29;20214;-90
2022/01/08 11:46:08;;;;;;;12.87;9.40;;;11.30;99.90;;;;;;10259137;28;20258;-90
2022/01/08 11:51:19;;;;;;;9.87;6.70;;;11.80;97.00;;;;;;10228059;29;20211;-91
2022/01/08 11:56:29;;;;;;;27.67;17.53;;;12.00;98.70;;;;;;10242600;28;20205;-90
2022/01/08 12:01:32;;;;;;;21.67;14.93;;;11.50;93.60;;;;;;10258855;29;20216;-91
2022/01/08 12:06:38;;;;;;;12.93;7.83;;;10.60;95.40;;;;;;10243110;28;20247;-91
2022/01/08 12:11:47;;;;;;;20.57;12.40;;;11.40;99.90;;;;;;10243527;28;20206;-90
2022/01/08 12:16:58;;;;;;;33.23;19.43;;;11.20;97.00;;;;;;10243191;29;20216;-91
2022/01/08 12:22:21;;;;;;;11.97;8.83;;;10.60;96.50;;;;;;10242085;28;20228;-89
2022/01/08 12:27:35;;;;;;;29.17;18.57;;;10.60;99.90;;;;;;10247515;28;20210;-91
2022/01/08 12:32:40;;;;;;;12.17;7.90;;;10.40;92.90;;;;;;10257719;28;20267;-90
2022/01/08 12:37:45;;;;;;;20.77;13.93;;;11.90;98.50;;;;;;10240681;28;20692;-90
2022/01/08 12:42:47;;;;;;;9.23;7.10;;;12.60;93.80;;;;;;10257585;28;20290;-90
2022/01/08 12:47:56;;;;;;;12.60;8.07;;;13.00;94.80;;;;;;10256918;29;20290;-91
2022/01/08 12:53:05;;;;;;;12.10;8.63;;;13.00;93.50;;;;;;10257010;29;20222;-91
2022/01/08 12:58:19;;;;;;;22.83;13.70;;;12.70;94.00;;;;;;10238961;29;20220;-90
2022/01/08 13:03:36;;;;;;;10.63;7.80;;;12.50;94.20;;;;;;10256439;28;20277;-90
2022/01/08 13:08:44;;;;;;;26.07;16.07;;;12.90;94.30;;;;;;10256606;28;20200;-90
2022/01/08 13:13:57;;;;;;;15.57;10.03;;;12.80;91.70;;;;;;10239595;29;20279;-91
2022/01/08 13:19:03;;;;;;;18.37;12.73;;;12.80;93.60;;;;;;10239038;28;20264;-90
2022/01/08 13:24:17;;;;;;;11.17;7.60;;;12.30;90.20;;;;;;10255711;29;20235;-91
2022/01/08 13:29:25;;;;;;;11.10;7.53;;;12.40;94.20;;;;;;10255623;28;20233;-90
2022/01/08 13:34:43;;;;;;;21.73;13.80;;;12.50;94.50;;;;;;10238519;28;20214;-91
2022/01/08 13:39:54;;;;;;;21.43;12.53;;;12.40;93.70;;;;;;10255404;29;20265;-91
2022/01/08 13:45:06;;;;;;;14.17;9.23;;;12.10;93.10;;;;;;10255128;28;20312;-92
2022/01/08 13:50:19;;;;;;;28.07;17.77;;;12.40;94.30;;;;;;10254833;28;20726;-91
2022/01/08 13:55:27;;;;;;;44.17;26.73;;;11.70;92.90;;;;;;10237154;29;20206;-91
2022/01/08 14:00:32;;;;;;;51.77;28.07;;;9.90;91.90;;;;;;10254656;29;20213;-91
2022/01/08 14:05:35;;;;;;;54.40;29.57;;;8.70;93.10;;;;;;10254436;28;20614;-91
2022/01/08 14:10:40;;;;;;;33.60;18.73;;;7.50;93.20;;;;;;10237332;29;20254;-93
2022/01/08 14:15:46;;;;;;;38.90;23.80;;;7.90;99.90;;;;;;10254142;28;20622;-91
2022/01/08 14:20:52;;;;;;;34.20;19.47;;;7.70;96.10;;;;;;10253942;28;20238;-92
2022/01/08 14:25:55;;;;;;;29.80;19.20;;;7.70;99.90;;;;;;10253626;28;20261;-93
2022/01/08 14:31:19;;;;;;;20.30;13.77;;;7.40;99.90;;;;;;10253727;28;20258;-90
2022/01/08 14:36:21;;;;;;;30.83;18.67;;;7.40;99.90;;;;;;10253854;28;20214;-92
2022/01/08 14:41:34;;;;;;;37.10;21.87;;;7.10;99.90;;;;;;10252413;29;20238;-90
2022/01/08 14:46:47;;;;;;;37.87;22.33;;;7.50;99.90;;;;;;10252672;28;20226;-92
2022/01/08 14:51:51;;;;;;;29.43;18.03;;;7.70;99.90;;;;;;10235989;29;20226;-91
2022/01/08 14:56:54;;;;;;;33.80;20.80;;;7.70;99.90;;;;;;10236021;29;20206;-91
2022/01/08 15:01:56;;;;;;;31.23;18.67;;;7.50;99.90;;;;;;10252741;28;20577;-91
2022/01/08 15:07:00;;;;;;;11.93;9.23;;;8.10;99.90;;;;;;10252600;28;20286;-91
2022/01/08 15:12:03;;;;;;;11.40;9.07;;;9.40;99.90;;;;;;10252799;28;20253;-91
2022/01/08 15:17:06;;;;;;;20.37;12.27;;;10.50;99.90;;;;;;10252587;29;20266;-92
2022/01/08 15:22:08;;;;;;;37.67;21.53;;;10.20;99.90;;;;;;10234942;28;20230;-90
2022/01/08 15:27:11;;;;;;;46.50;24.83;;;9.50;99.90;;;;;;10252480;29;20314;-90
2022/01/08 15:32:13;;;;;;;51.30;29.70;;;8.90;99.90;;;;;;10235354;28;20198;-91
2022/01/08 15:37:16;;;;;;;29.87;17.67;;;8.70;99.90;;;;;;10234868;29;20591;-91
2022/01/08 15:42:18;;;;;;;20.37;13.20;;;8.60;99.90;;;;;;10234451;29;20211;-91
2022/01/08 15:47:21;;;;;;;29.77;17.00;;;8.80;99.90;;;;;;10235105;29;20230;-90
2022/01/08 15:52:25;;;;;;;21.37;13.43;;;9.20;99.90;;;;;;10251606;29;20240;-90
2022/01/08 15:57:28;;;;;;;27.17;15.97;;;9.40;99.90;;;;;;10251624;28;20262;-91
2022/01/08 16:02:30;;;;;;;39.53;20.40;;;9.30;99.90;;;;;;10260189;28;20255;-91
2022/01/08 16:07:33;;;;;;;34.80;19.37;;;9.40;99.90;;;;;;10242105;28;20211;-90
2022/01/08 16:12:35;;;;;;;45.10;24.83;;;9.50;99.90;;;;;;10259182;29;20245;-91
2022/01/08 16:17:38;;;;;;;45.63;26.50;;;9.10;99.90;;;;;;10241558;29;20204;-91
2022/01/08 16:22:41;;;;;;;29.73;17.60;;;8.80;99.90;;;;;;10257655;28;20262;-91
2022/01/08 16:27:45;;;;;;;35.53;21.30;;;8.90;99.90;;;;;;10224546;29;20206;-91
2022/01/08 16:32:48;;;;;;;38.77;21.37;;;8.90;99.90;;;;;;10240172;28;20266;-90
2022/01/08 16:37:50;;;;;;;32.33;21.60;;;8.70;99.90;;;;;;10257619;28;20211;-91
2022/01/08 16:42:53;;;;;;;38.27;21.60;;;7.90;99.90;;;;;;10255959;29;20208;-90
2022/01/08 16:47:55;;;;;;;55.50;29.87;;;7.50;99.90;;;;;;10257360;29;20230;-90
2022/01/08 16:52:58;;;;;;;38.83;23.67;;;7.80;99.90;;;;;;10256557;29;20203;-91
2022/01/08 16:58:00;;;;;;;33.33;20.17;;;7.70;99.90;;;;;;10256664;28;20203;-91
2022/01/08 17:03:06;;;;;;;34.47;19.60;;;7.60;99.90;;;;;;10256362;28;20222;-90
2022/01/08 17:08:09;;;;;;;26.33;17.07;;;7.20;99.90;;;;;;10256127;28;20218;-91
2022/01/08 17:13:11;;;;;;;29.87;16.27;;;7.00;99.90;;;;;;10238699;29;20210;-90
2022/01/08 17:18:14;;;;;;;39.10;22.80;;;7.20;99.90;;;;;;10256118;28;20577;-91
2022/01/08 17:23:16;;;;;;;33.60;18.63;;;7.80;99.90;;;;;;10255442;28;20281;-90
2022/01/08 17:28:19;;;;;;;29.47;17.83;;;7.70;99.90;;;;;;10238063;29;20571;-90
2022/01/08 17:33:22;;;;;;;28.10;18.17;;;8.40;99.90;;;;;;10254925;28;20210;-91
2022/01/08 17:38:24;;;;;;;31.00;18.10;;;8.30;99.90;;;;;;10255009;29;20584;-91
2022/01/08 17:43:27;;;;;;;25.50;14.07;;;8.20;99.90;;;;;;10237634;29;20320;-90
2022/01/08 17:48:30;;;;;;;17.77;12.43;;;8.80;99.90;;;;;;10237713;29;20234;-90
2022/01/08 17:53:32;;;;;;;24.57;15.43;;;8.80;99.90;;;;;;10254584;29;20258;-90
2022/01/08 17:58:35;;;;;;;27.60;16.73;;;8.50;99.90;;;;;;10254321;28;20552;-90
2022/01/08 18:03:37;;;;;;;20.00;12.43;;;8.70;99.90;;;;;;10254080;29;20219;-89
2022/01/08 18:08:40;;;;;;;23.13;12.57;;;9.10;99.90;;;;;;10236542;29;20223;-91
2022/01/08 18:13:43;;;;;;;30.00;16.37;;;9.70;99.90;;;;;;10253846;28;20680;-91
2022/01/08 18:18:45;;;;;;;47.30;24.73;;;9.60;99.90;;;;;;10253370;28;20214;-91
2022/01/08 18:23:48;;;;;;;37.80;20.87;;;8.90;99.90;;;;;;10235542;28;20237;-91
2022/01/08 18:28:50;;;;;;;28.33;14.77;;;9.30;99.90;;;;;;10253463;28;20240;-91
2022/01/08 18:33:53;;;;;;;56.60;30.33;;;10.00;99.90;;;;;;10253280;29;20624;-91
2022/01/08 18:38:55;;;;;;;32.07;18.40;;;9.90;99.90;;;;;;10253011;29;20243;-91
2022/01/08 18:43:57;;;;;;;46.97;25.97;;;9.50;99.90;;;;;;10253874;28;20561;-90
2022/01/08 18:49:00;;;;;;;24.27;14.97;;;9.00;99.90;;;;;;10252902;28;20317;-92
2022/01/08 18:54:03;;;;;;;39.10;23.10;;;8.60;99.90;;;;;;10254433;28;20588;-93
2022/01/08 18:59:06;;;;;;;22.30;14.37;;;8.40;99.90;;;;;;10237833;28;20261;-92
2022/01/08 19:04:08;;;;;;;38.80;22.40;;;9.30;99.90;;;;;;10237637;29;20293;-91
2022/01/08 19:09:11;;;;;;;17.63;11.97;;;9.60;99.90;;;;;;10253747;28;20242;-91
2022/01/08 19:14:14;;;;;;;15.50;11.17;;;10.00;99.90;;;;;;10253485;28;20239;-91
2022/01/08 19:19:17;;;;;;;17.53;11.47;;;10.90;99.90;;;;;;10234349;28;20242;-91
2022/01/08 19:24:19;;;;;;;23.57;13.70;;;11.90;99.90;;;;;;10251022;28;20593;-91
2022/01/08 19:29:22;;;;;;;17.00;12.00;;;12.00;99.50;;;;;;10250215;28;20206;-92
2022/01/08 19:34:24;;;;;;;18.90;12.10;;;11.90;98.90;;;;;;10254335;28;20203;-91
2022/01/08 19:39:27;;;;;;;18.40;11.30;;;12.40;97.50;;;;;;10259525;28;20242;-91
2022/01/08 19:44:36;;;;;;;17.67;10.93;;;12.20;97.50;;;;;;10241898;29;20708;-91
2022/01/08 19:49:39;;;;;;;23.27;15.10;;;12.30;97.20;;;;;;10259230;28;20553;-91
2022/01/08 19:54:42;;;;;;;22.50;13.33;;;11.80;97.00;;;;;;10241425;29;20278;-92
2022/01/08 19:59:47;;;;;;;31.77;19.43;;;11.00;97.30;;;;;;10241222;29;20248;-91
2022/01/08 20:04:50;;;;;;;18.60;12.40;;;10.30;98.50;;;;;;10241647;28;20231;-91
2022/01/08 20:09:53;;;;;;;22.13;12.83;;;10.00;99.90;;;;;;10240690;28;20211;-91
2022/01/08 20:14:56;;;;;;;27.47;16.27;;;10.30;99.90;;;;;;10258024;28;20241;-90
2022/01/08 20:19:59;;;;;;;20.90;12.43;;;10.20;99.90;;;;;;10240543;29;20263;-91
2022/01/08 20:25:02;;;;;;;21.13;13.30;;;10.10;99.90;;;;;;10257558;28;20240;-91
2022/01/08 20:30:05;;;;;;;29.00;17.03;;;10.50;99.90;;;;;;10240317;29;20211;-91
2022/01/08 20:35:09;;;;;;;34.23;20.13;;;10.40;99.90;;;;;;10257420;28;20211;-91
2022/01/08 20:40:13;;;;;;;47.07;23.60;;;9.40;99.90;;;;;;10257245;28;20220;-91
2022/01/08 20:45:15;;;;;;;20.43;12.50;;;8.90;99.90;;;;;;10238852;28;20255;-91
2022/01/08 20:50:18;;;;;;;32.77;19.33;;;10.00;99.90;;;;;;10239956;28;20204;-91
2022/01/08 20:55:21;;;;;;;45.07;25.47;;;10.40;99.90;;;;;;10239743;28;20235;-91
2022/01/08 21:00:25;;;;;;;33.73;19.50;;;8.90;99.80;;;;;;10256459;28;20238;-91
2022/01/08 21:05:28;;;;;;;25.00;15.63;;;8.40;99.90;;;;;;10238921;28;20782;-90
2022/01/08 21:10:30;;;;;;;20.93;13.80;;;8.80;99.90;;;;;;10255947;28;20211;-91
2022/01/08 21:15:33;;;;;;;19.77;12.60;;;10.00;99.90;;;;;;10255925;28;20207;-91
2022/01/08 21:20:36;;;;;;;19.63;12.47;;;10.60;99.90;;;;;;10255655;28;20677;-90
2022/01/08 21:25:38;;;;;;;18.97;12.20;;;10.60;99.90;;;;;;10255125;28;20227;-91
2022/01/08 21:30:41;;;;;;;25.77;16.03;;;11.00;99.90;;;;;;10255352;28;20275;-91
2022/01/08 21:35:48;;;;;;;26.90;15.23;;;10.70;99.90;;;;;;10238052;29;20212;-90
2022/01/08 21:40:50;;;;;;;30.37;17.33;;;9.90;99.90;;;;;;10221612;29;20751;-90
2022/01/08 21:45:53;;;;;;;25.37;15.23;;;9.50;99.90;;;;;;10236903;29;20595;-90
2022/01/08 21:50:55;;;;;;;27.27;16.40;;;9.70;99.90;;;;;;10221032;28;20673;-91
2022/01/08 21:55:58;;;;;;;34.03;21.43;;;9.70;99.90;;;;;;10254152;28;20212;-90
2022/01/08 22:01:01;;;;;;;30.67;17.53;;;9.30;99.90;;;;;;10254212;28;20206;-91
2022/01/08 22:06:03;;;;;;;40.50;21.77;;;8.80;99.90;;;;;;10236949;28;20285;-91
2022/01/08 22:11:07;;;;;;;31.53;18.00;;;8.60;99.90;;;;;;10253970;28;20246;-91
2022/01/08 22:16:09;;;;;;;28.67;18.30;;;8.40;99.90;;;;;;10253713;28;20214;-91
2022/01/08 22:21:12;;;;;;;34.27;21.67;;;8.70;99.90;;;;;;10252333;29;20216;-91
2022/01/08 22:26:15;;;;;;;34.27;19.73;;;8.40;99.90;;;;;;10253157;28;20244;-91
2022/01/08 22:31:18;;;;;;;24.73;13.43;;;8.70;99.90;;;;;;10253195;29;20234;-91
2022/01/08 22:36:20;;;;;;;47.73;23.23;;;8.70;99.90;;;;;;10253436;28;20281;-91
2022/01/08 22:41:23;;;;;;;22.87;13.80;;;8.30;99.90;;;;;;10235910;29;20560;-90
2022/01/08 22:46:26;;;;;;;33.27;18.20;;;8.40;99.90;;;;;;10252610;28;20281;-90
2022/01/08 22:51:29;;;;;;;30.23;17.63;;;8.10;99.90;;;;;;10252308;29;20583;-91
2022/01/08 22:56:32;;;;;;;24.50;14.17;;;8.40;99.90;;;;;;10219322;28;20218;-91
2022/01/08 23:01:35;;;;;;;27.63;17.43;;;8.50;99.90;;;;;;10235349;28;20273;-91
2022/01/08 23:06:41;;;;;;;41.63;25.20;;;9.50;99.90;;;;;;10218800;29;20230;-91
2022/01/08 23:11:43;;;;;;;25.97;16.10;;;9.10;99.40;;;;;;10251507;28;20211;-91
2022/01/08 23:16:46;;;;;;;34.73;22.00;;;9.00;99.90;;;;;;10234313;28;20207;-91
2022/01/08 23:21:49;;;;;;;29.63;19.00;;;8.30;99.90;;;;;;10234715;29;20210;-90
2022/01/08 23:26:51;;;;;;;27.67;18.60;;;8.10;99.90;;;;;;10234130;28;20234;-90
2022/01/08 23:31:54;;;;;;;28.30;17.27;;;8.10;99.90;;;;;;10251524;29;20206;-91
2022/01/08 23:36:56;;;;;;;38.33;22.37;;;8.40;99.90;;;;;;10251612;28;20214;-91
2022/01/08 23:41:59;;;;;;;24.27;14.70;;;8.10;99.90;;;;;;10234346;29;20277;-91
2022/01/08 23:47:03;;;;;;;18.13;11.63;;;9.20;99.90;;;;;;10233760;29;20261;-90
2022/01/08 23:52:11;;;;;;;34.27;18.50;;;10.00;99.90;;;;;;10251201;28;20210;-91
2022/01/08 23:57:14;;;;;;;16.13;11.23;;;10.30;99.90;;;;;;10218381;28;20262;-90
